createdAt,value
2022-10-09T00:01:08.688Z,4.07
2022-10-09T00:03:38.236Z,13.88
2022-10-09T00:06:07.138Z,3.90
2022-10-09T00:08:35.343Z,6.15
2022-10-09T00:11:07.305Z,6.60
2022-10-09T00:13:34.581Z,11.07
2022-10-09T00:16:09.768Z,6.25
2022-10-09T00:18:37.388Z,8.52
2022-10-09T00:21:06.280Z,8.80
2022-10-09T00:23:33.504Z,7.55
2022-10-09T00:26:20.154Z,8.35
2022-10-09T00:28:48.133Z,6.30
2022-10-09T00:31:16.188Z,6.75
2022-10-09T00:33:44.562Z,5.50
2022-10-09T00:36:15.467Z,6.05
2022-10-09T00:41:21.784Z,8.02
2022-10-09T00:43:54.873Z,6.30
2022-10-09T00:46:45.922Z,4.07
2022-10-09T00:49:21.006Z,9.25
2022-10-09T00:51:50.166Z,4.70
2022-10-09T00:54:20.462Z,4.82
2022-10-09T00:56:49.060Z,10.90
2022-10-09T00:59:18.423Z,7.30
2022-10-09T01:01:46.483Z,10.23
2022-10-09T01:04:13.749Z,4.25
2022-10-09T01:07:05.968Z,5.10
2022-10-09T01:09:42.290Z,8.55
2022-10-09T01:12:20.436Z,7.40
2022-10-09T01:15:05.420Z,5.15
2022-10-09T01:17:39.726Z,8.57
2022-10-09T01:20:29.161Z,8.65
2022-10-09T01:23:05.981Z,5.37
2022-10-09T01:25:46.354Z,2.88
2022-10-09T01:28:15.882Z,5.93
2022-10-09T01:30:43.708Z,8.93
2022-10-09T01:33:11.631Z,6.18
2022-10-09T01:35:40.975Z,11.48
2022-10-09T01:38:08.687Z,6.35
2022-10-09T01:40:38.543Z,6.30
2022-10-09T01:43:05.955Z,7.40
2022-10-09T01:45:41.664Z,6.60
2022-10-09T01:48:13.007Z,5.18
2022-10-09T01:50:48.092Z,7.13
2022-10-09T01:53:19.843Z,4.88
2022-10-09T01:55:56.757Z,5.68
2022-10-09T01:58:52.070Z,6.22
2022-10-09T02:01:34.573Z,11.80
2022-10-09T02:04:05.851Z,6.25
2022-10-09T02:06:34.348Z,4.80
2022-10-09T02:09:04.460Z,8.52
2022-10-09T02:11:33.592Z,16.73
2022-10-09T02:14:00.734Z,6.03
2022-10-09T02:16:43.865Z,2.70
2022-10-09T02:19:17.390Z,6.50
2022-10-09T02:21:54.401Z,4.30
2022-10-09T02:24:23.462Z,7.05
2022-10-09T02:26:53.670Z,11.93
2022-10-09T02:29:22.049Z,4.93
2022-10-09T02:31:49.130Z,7.15
2022-10-09T02:34:20.457Z,8.63
2022-10-09T02:36:48.554Z,4.45
2022-10-09T02:39:15.954Z,8.65
2022-10-09T02:41:43.050Z,4.95
2022-10-09T02:44:10.486Z,5.25
2022-10-09T02:46:38.728Z,10.40
2022-10-09T02:49:06.861Z,7.18
2022-10-09T02:51:35.068Z,8.20
2022-10-09T02:54:03.438Z,8.63
2022-10-09T02:56:30.537Z,6.20
2022-10-09T02:58:58.667Z,8.60
2022-10-09T03:01:26.745Z,2.35
2022-10-09T03:03:54.669Z,11.23
2022-10-09T03:06:26.800Z,6.72
2022-10-09T03:08:54.412Z,4.88
2022-10-09T03:11:23.598Z,7.15
2022-10-09T03:13:51.060Z,5.90
2022-10-09T03:16:21.446Z,4.72
2022-10-09T03:18:49.986Z,7.65
2022-10-09T03:21:22.879Z,4.82
2022-10-09T03:23:51.381Z,7.68
2022-10-09T03:26:21.542Z,11.65
2022-10-09T03:31:39.638Z,6.55
2022-10-09T03:34:07.530Z,5.50
2022-10-09T03:36:34.506Z,5.95
2022-10-09T03:39:01.529Z,5.85
2022-10-09T03:41:28.529Z,9.60
2022-10-09T03:43:55.570Z,9.27
2022-10-09T03:46:22.693Z,3.53
2022-10-09T03:48:49.975Z,5.82
2022-10-09T03:51:17.170Z,6.18
2022-10-09T03:53:44.413Z,6.10
2022-10-09T03:56:11.446Z,3.72
2022-10-09T03:58:38.748Z,8.05
2022-10-09T04:01:05.760Z,6.25
2022-10-09T04:03:32.919Z,10.32
2022-10-09T04:06:00.185Z,5.75
2022-10-09T04:08:27.790Z,4.93
2022-10-09T04:11:01.554Z,6.38
2022-10-09T04:13:28.660Z,5.40
2022-10-09T04:15:57.903Z,3.97
2022-10-09T04:18:26.226Z,4.70
2022-10-09T04:20:55.984Z,9.07
2022-10-09T04:23:26.270Z,4.75
2022-10-09T04:28:27.103Z,5.13
2022-10-09T04:30:55.094Z,4.88
2022-10-09T04:33:25.283Z,4.90
2022-10-09T04:35:54.246Z,4.43
2022-10-09T04:38:22.309Z,5.07
2022-10-09T04:41:00.929Z,6.53
2022-10-09T04:43:28.973Z,6.70
2022-10-09T04:45:57.032Z,9.57
2022-10-09T04:48:25.832Z,5.57
2022-10-09T04:50:52.880Z,4.82
2022-10-09T04:53:20.946Z,9.40
2022-10-09T04:55:47.977Z,6.35
2022-10-09T04:58:15.174Z,7.68
2022-10-09T05:00:46.502Z,6.03
2022-10-09T05:03:16.982Z,6.15
2022-10-09T05:09:28.509Z,5.97
2022-10-09T05:12:36.088Z,3.83
2022-10-09T05:15:03.351Z,8.38
2022-10-09T05:17:31.005Z,5.05
2022-10-09T05:19:58.032Z,9.40
2022-10-09T05:22:26.360Z,8.68
2022-10-09T05:24:56.512Z,11.23
2022-10-09T05:27:25.408Z,9.55
2022-10-09T05:29:54.497Z,3.88
2022-10-09T05:32:27.503Z,3.03
2022-10-09T05:34:59.892Z,3.58
2022-10-09T05:37:31.022Z,6.13
2022-10-09T05:40:06.709Z,6.38
2022-10-09T05:42:37.314Z,4.07
2022-10-09T05:45:10.497Z,4.07
2022-10-09T05:47:48.186Z,5.05
2022-10-09T05:50:21.625Z,6.25
2022-10-09T05:52:51.532Z,6.13
2022-10-09T05:55:20.359Z,5.25
2022-10-09T05:57:50.771Z,9.93
2022-10-09T06:00:18.989Z,5.57
2022-10-09T06:02:47.783Z,6.35
2022-10-09T06:05:15.734Z,6.90
2022-10-09T06:07:45.832Z,8.02
2022-10-09T06:10:16.285Z,3.50
2022-10-09T06:12:46.161Z,5.55
2022-10-09T06:15:25.866Z,7.43
2022-10-09T06:20:20.757Z,6.72
2022-10-09T06:22:48.104Z,7.60
2022-10-09T06:25:15.351Z,7.63
2022-10-09T06:27:42.414Z,5.03
2022-10-09T06:30:10.202Z,4.50
2022-10-09T06:32:37.338Z,5.57
2022-10-09T06:35:04.532Z,8.95
2022-10-09T06:37:31.953Z,12.13
2022-10-09T06:39:58.890Z,6.63
2022-10-09T06:42:25.845Z,6.18
2022-10-09T06:44:57.575Z,4.65
2022-10-09T06:47:24.565Z,5.68
2022-10-09T06:49:51.826Z,5.80
2022-10-09T06:52:18.964Z,6.55
2022-10-09T06:54:46.869Z,6.43
2022-10-09T06:57:14.351Z,7.05
2022-10-09T06:59:41.465Z,6.65
2022-10-09T07:02:09.187Z,7.00
2022-10-09T07:04:36.392Z,5.78
2022-10-09T07:07:03.840Z,7.00
2022-10-09T07:09:31.520Z,5.88
2022-10-09T07:11:58.623Z,16.65
2022-10-09T07:14:25.811Z,5.03
2022-10-09T07:16:53.469Z,7.95
2022-10-09T07:19:21.813Z,6.38
2022-10-09T07:21:50.489Z,4.82
2022-10-09T07:24:20.612Z,6.82
2022-10-09T07:26:48.571Z,5.85
2022-10-09T07:29:18.070Z,6.68
2022-10-09T07:31:45.837Z,4.03
2022-10-09T07:34:13.101Z,7.32
2022-10-09T07:36:40.062Z,3.70
2022-10-09T07:39:07.294Z,6.15
2022-10-09T07:41:34.956Z,9.57
2022-10-09T07:44:02.341Z,8.05
2022-10-09T07:46:33.347Z,3.72
2022-10-09T07:49:01.673Z,5.88
2022-10-09T07:51:29.645Z,7.35
2022-10-09T07:54:02.040Z,2.80
2022-10-09T07:56:32.225Z,5.28
2022-10-09T07:59:02.190Z,8.85
2022-10-09T08:01:31.440Z,7.88
2022-10-09T08:03:59.993Z,3.47
2022-10-09T08:06:27.850Z,5.38
2022-10-09T08:08:57.097Z,6.70
2022-10-09T08:11:26.441Z,6.72
2022-10-09T08:13:54.126Z,5.53
2022-10-09T08:16:23.345Z,6.53
2022-10-09T08:18:55.206Z,10.37
2022-10-09T08:21:23.060Z,5.28
2022-10-09T08:23:54.411Z,8.43
2022-10-09T08:26:23.912Z,3.72
2022-10-09T08:28:59.813Z,5.43
2022-10-09T08:31:28.405Z,3.20
2022-10-09T08:33:57.472Z,6.15
2022-10-09T08:36:25.228Z,5.15
2022-10-09T08:38:52.471Z,7.10
2022-10-09T08:41:34.687Z,5.55
2022-10-09T08:44:30.204Z,7.35
2022-10-09T08:47:03.630Z,2.80
2022-10-09T08:49:36.779Z,7.30
2022-10-09T08:52:30.043Z,6.15
2022-10-09T08:55:01.413Z,8.45
2022-10-09T08:57:34.658Z,11.98
2022-10-09T09:00:01.750Z,4.55
2022-10-09T09:02:56.120Z,7.30
2022-10-09T09:05:39.782Z,8.27
2022-10-09T09:08:13.829Z,6.93
2022-10-09T09:10:47.274Z,5.20
2022-10-09T09:13:24.320Z,2.58
2022-10-09T09:16:02.901Z,5.22
2022-10-09T09:18:42.499Z,5.28
2022-10-09T09:23:47.926Z,4.10
2022-10-09T09:28:49.707Z,5.88
2022-10-09T09:31:37.613Z,5.50
2022-10-09T09:34:11.687Z,4.82
2022-10-09T09:36:55.037Z,21.35
2022-10-09T09:42:18.833Z,3.70
2022-10-09T09:45:07.965Z,4.07
2022-10-09T09:47:42.299Z,4.85
2022-10-09T09:50:23.425Z,8.23
2022-10-09T09:52:57.201Z,3.70
2022-10-09T09:55:27.969Z,17.02
2022-10-09T09:58:02.628Z,8.27
2022-10-09T10:00:29.775Z,8.25
2022-10-09T10:03:23.731Z,4.03
2022-10-09T10:05:51.808Z,5.70
2022-10-09T10:08:34.910Z,5.10
2022-10-09T10:11:05.952Z,3.90
2022-10-09T10:13:38.195Z,3.97
2022-10-09T10:16:08.288Z,4.15
2022-10-09T10:21:17.488Z,5.95
2022-10-09T10:23:58.685Z,4.15
2022-10-09T10:26:35.820Z,5.68
2022-10-09T10:29:08.560Z,5.75
2022-10-09T10:31:47.840Z,3.42
2022-10-09T10:34:39.186Z,3.43
2022-10-09T10:37:15.077Z,4.95
2022-10-09T10:39:49.580Z,6.15
2022-10-09T10:42:24.656Z,4.07
2022-10-09T10:45:04.034Z,5.47
2022-10-09T10:47:38.291Z,3.77
2022-10-09T10:50:12.562Z,5.68
2022-10-09T10:52:55.588Z,4.97
2022-10-09T10:55:52.462Z,4.20
2022-10-09T10:58:44.698Z,3.95
2022-10-09T11:01:27.619Z,3.05
2022-10-09T11:04:15.447Z,4.03
2022-10-09T11:06:55.730Z,6.32
2022-10-09T11:09:37.454Z,3.85
2022-10-09T11:12:19.320Z,4.50
2022-10-09T11:14:56.130Z,2.38
2022-10-09T11:17:36.464Z,3.80
2022-10-09T11:20:15.687Z,3.50
2022-10-09T11:22:58.431Z,4.78
2022-10-09T11:25:59.018Z,3.17
2022-10-09T11:28:37.811Z,5.55
2022-10-09T11:31:14.511Z,7.35
2022-10-09T11:33:47.094Z,7.05
2022-10-09T11:36:27.144Z,5.63
2022-10-09T11:39:01.056Z,8.32
2022-10-09T11:41:30.945Z,6.68
2022-10-09T11:44:21.195Z,5.63
2022-10-09T11:46:54.298Z,3.50
2022-10-09T11:49:38.729Z,3.40
2022-10-09T11:52:42.675Z,7.57
2022-10-09T11:55:25.322Z,3.15
2022-10-09T11:57:53.383Z,6.38
2022-10-09T12:00:33.039Z,3.20
2022-10-09T12:03:03.667Z,4.72
2022-10-09T12:05:46.517Z,3.75
2022-10-09T12:08:19.440Z,3.90
2022-10-09T12:10:54.229Z,5.35
2022-10-09T12:13:47.968Z,4.05
2022-10-09T12:16:40.662Z,3.47
2022-10-09T12:19:31.272Z,4.60
2022-10-09T12:22:06.447Z,3.83
2022-10-09T12:24:50.651Z,4.47
2022-10-09T12:27:25.368Z,5.53
2022-10-09T12:30:04.744Z,5.03
2022-10-09T12:32:37.578Z,13.43
2022-10-09T12:35:25.942Z,4.18
2022-10-09T12:37:53.196Z,8.57
2022-10-09T12:40:25.351Z,5.03
2022-10-09T12:42:54.477Z,6.80
2022-10-09T12:45:26.087Z,8.38
2022-10-09T12:47:54.598Z,4.05
2022-10-09T12:50:32.372Z,2.95
2022-10-09T12:53:06.401Z,3.40
2022-10-09T12:55:36.173Z,5.05
2022-10-09T12:58:26.330Z,10.82
2022-10-09T13:01:02.847Z,5.75
2022-10-09T13:03:32.853Z,10.82
2022-10-09T13:06:01.282Z,5.30
2022-10-09T13:08:31.367Z,3.85
2022-10-09T13:11:21.318Z,8.32
2022-10-09T13:13:54.019Z,4.97
2022-10-09T13:16:21.814Z,9.80
2022-10-09T13:19:03.089Z,5.07
2022-10-09T13:21:35.370Z,6.28
2022-10-09T13:24:11.096Z,3.22
2022-10-09T13:26:40.861Z,8.73
2022-10-09T13:29:09.167Z,11.48
2022-10-09T13:31:37.121Z,9.77
2022-10-09T13:34:12.713Z,10.57
2022-10-09T13:36:40.591Z,8.30
2022-10-09T13:39:14.629Z,8.10
2022-10-09T13:41:43.334Z,10.10
2022-10-09T13:44:10.460Z,9.10
2022-10-09T13:46:37.591Z,12.27
2022-10-09T13:49:04.759Z,15.38
2022-10-09T13:51:32.896Z,9.93
2022-10-09T13:53:59.850Z,7.70
2022-10-09T13:56:27.857Z,7.72
2022-10-09T13:58:55.193Z,12.38
2022-10-09T14:01:22.738Z,15.68
2022-10-09T14:03:50.707Z,14.10
2022-10-09T14:06:17.894Z,17.60
2022-10-09T14:08:44.969Z,15.23
2022-10-09T14:11:11.925Z,11.40
2022-10-09T14:13:39.030Z,9.60
2022-10-09T14:16:07.903Z,12.32
2022-10-09T14:18:35.270Z,13.85
2022-10-09T14:21:12.512Z,12.85
2022-10-09T14:23:42.269Z,11.48
2022-10-09T14:26:10.091Z,14.68
2022-10-09T14:28:38.197Z,14.07
2022-10-09T14:31:07.643Z,8.73
2022-10-09T14:33:34.989Z,11.43
2022-10-09T14:36:10.312Z,11.65
2022-10-09T14:38:42.093Z,12.57
2022-10-09T14:41:10.217Z,12.35
2022-10-09T14:43:37.145Z,12.07
2022-10-09T14:46:13.304Z,16.40
2022-10-09T14:48:40.546Z,13.13
2022-10-09T14:51:11.214Z,8.10
2022-10-09T14:53:38.504Z,9.05
2022-10-09T14:56:08.362Z,18.05
2022-10-09T14:58:36.861Z,10.73
2022-10-09T15:01:04.871Z,10.02
2022-10-09T15:03:32.328Z,8.00
2022-10-09T15:06:06.055Z,10.60
2022-10-09T15:08:34.858Z,9.05
2022-10-09T15:11:02.379Z,9.70
2022-10-09T15:13:29.883Z,7.32
2022-10-09T15:16:04.779Z,5.57
2022-10-09T15:18:32.078Z,7.15
2022-10-09T15:21:01.871Z,5.85
2022-10-09T15:23:29.666Z,6.55
2022-10-09T15:26:00.868Z,5.38
2022-10-09T15:28:28.092Z,6.25
2022-10-09T15:30:58.363Z,5.90
2022-10-09T15:33:26.117Z,6.43
2022-10-09T15:35:54.161Z,5.90
2022-10-09T15:38:23.360Z,7.38
2022-10-09T15:40:57.235Z,5.78
2022-10-09T15:43:26.411Z,5.28
2022-10-09T15:46:02.585Z,5.63
2022-10-09T15:48:31.067Z,7.72
2022-10-09T15:50:58.510Z,6.20
2022-10-09T15:53:25.807Z,6.50
2022-10-09T15:55:53.470Z,6.35
2022-10-09T15:58:21.679Z,6.00
2022-10-09T16:00:49.919Z,5.53
2022-10-09T16:03:18.207Z,9.07
2022-10-09T16:05:49.526Z,5.32
2022-10-09T16:08:19.117Z,8.52
2022-10-09T16:10:49.561Z,4.93
2022-10-09T16:15:48.216Z,4.45
2022-10-09T16:18:22.486Z,4.35
2022-10-09T16:20:50.379Z,6.47
2022-10-09T16:23:18.323Z,5.13
2022-10-09T16:25:56.540Z,4.40
2022-10-09T16:28:24.189Z,3.80
2022-10-09T16:30:51.905Z,3.60
2022-10-09T16:33:19.608Z,5.30
2022-10-09T16:35:46.708Z,5.30
2022-10-09T16:38:17.709Z,4.50
2022-10-09T16:41:01.494Z,5.15
2022-10-09T16:43:32.877Z,6.82
2022-10-09T16:48:58.534Z,8.35
2022-10-09T16:51:33.148Z,7.10
2022-10-09T16:54:02.430Z,9.07
2022-10-09T16:56:35.159Z,6.70
2022-10-09T16:59:05.336Z,6.90
2022-10-09T17:01:33.674Z,7.63
2022-10-09T17:04:02.594Z,8.07
2022-10-09T17:06:31.110Z,7.13
2022-10-09T17:08:59.827Z,6.85
2022-10-09T17:11:29.935Z,7.25
2022-10-09T17:13:57.879Z,7.78
2022-10-09T17:16:28.503Z,8.13
2022-10-09T17:18:58.273Z,9.65
2022-10-09T17:21:29.289Z,9.80
2022-10-09T17:24:01.511Z,9.38
2022-10-09T17:26:31.216Z,8.20
2022-10-09T17:29:00.197Z,9.35
2022-10-09T17:31:29.327Z,8.65
2022-10-09T17:34:00.457Z,10.63
2022-10-09T17:36:34.450Z,9.50
2022-10-09T17:39:02.232Z,11.20
2022-10-09T17:41:30.425Z,10.57
2022-10-09T17:43:57.872Z,11.80
2022-10-09T17:46:28.224Z,8.88
2022-10-09T17:49:00.671Z,10.75
2022-10-09T17:51:39.673Z,9.15
2022-10-09T17:54:17.148Z,8.82
2022-10-09T17:56:45.057Z,11.50
2022-10-09T17:59:12.581Z,9.77
2022-10-09T18:01:39.909Z,10.82
2022-10-09T18:04:19.111Z,10.48
2022-10-09T18:06:47.061Z,12.27
2022-10-09T18:09:14.597Z,10.32
2022-10-09T18:11:44.233Z,10.95
2022-10-09T18:14:34.021Z,12.40
2022-10-09T18:17:02.302Z,14.02
2022-10-09T18:19:30.381Z,12.00
2022-10-09T18:21:58.066Z,14.35
2022-10-09T18:24:27.044Z,10.48
2022-10-09T18:26:54.925Z,12.80
2022-10-09T18:29:23.772Z,9.52
2022-10-09T18:31:55.812Z,12.60
2022-10-09T18:34:27.952Z,13.68
2022-10-09T18:36:56.065Z,11.88
2022-10-09T18:39:23.243Z,13.77
2022-10-09T18:41:50.412Z,11.10
2022-10-09T18:44:19.771Z,9.60
2022-10-09T18:46:51.514Z,11.27
2022-10-09T18:49:21.938Z,10.48
2022-10-09T18:51:49.822Z,10.57
2022-10-09T18:54:19.691Z,12.00
2022-10-09T18:56:47.410Z,13.93
2022-10-09T18:59:18.682Z,15.93
2022-10-09T19:01:46.389Z,12.75
2022-10-09T19:04:13.737Z,12.73
2022-10-09T19:06:40.941Z,14.18
2022-10-09T19:09:08.685Z,18.77
2022-10-09T19:11:37.123Z,18.95
2022-10-09T19:14:04.315Z,16.52
2022-10-09T19:16:34.000Z,19.45
2022-10-09T19:19:01.509Z,17.42
2022-10-09T19:21:28.619Z,17.33
2022-10-09T19:23:58.896Z,17.17
2022-10-09T19:26:26.753Z,15.13
2022-10-09T19:28:55.077Z,16.25
2022-10-09T19:31:22.594Z,14.82
2022-10-09T19:33:49.896Z,15.27
2022-10-09T19:36:17.909Z,15.20
2022-10-09T19:38:45.922Z,13.55
2022-10-09T19:41:15.410Z,11.38
2022-10-09T19:43:42.924Z,12.90
2022-10-09T19:46:17.359Z,14.35
2022-10-09T19:48:45.957Z,12.77
2022-10-09T19:51:16.381Z,11.85
2022-10-09T19:56:13.107Z,10.43
2022-10-09T19:58:42.094Z,11.15
2022-10-09T20:01:14.543Z,10.65
2022-10-09T20:03:42.742Z,9.93
2022-10-09T20:06:10.771Z,10.40
2022-10-09T20:08:39.655Z,12.50
2022-10-09T20:11:07.665Z,12.00
2022-10-09T20:13:37.356Z,13.68
2022-10-09T20:16:08.561Z,10.20
2022-10-09T20:18:35.721Z,13.80
2022-10-09T20:21:02.801Z,11.85
2022-10-09T20:23:29.739Z,13.65
2022-10-09T20:26:11.282Z,11.68
2022-10-09T20:31:07.983Z,12.95
2022-10-09T20:33:38.967Z,12.07
2022-10-09T20:36:07.361Z,14.40
2022-10-09T20:38:35.285Z,14.50
2022-10-09T20:41:04.560Z,14.70
2022-10-09T20:43:31.880Z,12.95
2022-10-09T20:45:59.185Z,12.43
2022-10-09T20:48:26.210Z,12.88
2022-10-09T20:50:53.387Z,14.75
2022-10-09T20:53:20.775Z,12.52
2022-10-09T20:55:47.908Z,11.15
2022-10-09T20:58:14.863Z,12.63
2022-10-09T21:00:43.323Z,12.20
2022-10-09T21:03:12.581Z,11.27
2022-10-09T21:05:41.916Z,12.98
2022-10-09T21:08:09.647Z,13.77
2022-10-09T21:10:43.353Z,11.40
2022-10-09T21:13:10.415Z,15.88
2022-10-09T21:15:45.367Z,15.65
2022-10-09T21:18:14.114Z,11.75
2022-10-09T21:20:42.971Z,12.55
2022-10-09T21:23:12.577Z,12.77
2022-10-09T21:25:47.547Z,11.32
2022-10-09T21:28:14.875Z,12.77
2022-10-09T21:30:41.985Z,13.15
2022-10-09T21:33:09.892Z,11.73
2022-10-09T21:35:42.024Z,13.85
2022-10-09T21:38:15.193Z,10.85
2022-10-09T21:40:43.083Z,9.40
2022-10-09T21:43:10.971Z,10.43
2022-10-09T21:45:39.062Z,10.15
2022-10-09T21:48:07.051Z,11.32
2022-10-09T21:50:34.639Z,12.15
2022-10-09T21:53:01.834Z,9.45
2022-10-09T21:55:29.219Z,10.40
2022-10-09T21:57:56.612Z,11.18
2022-10-09T22:00:24.379Z,10.35
2022-10-09T22:02:51.889Z,9.52
2022-10-09T22:05:19.051Z,11.23
2022-10-09T22:07:46.088Z,16.70
2022-10-09T22:10:13.122Z,14.65
2022-10-09T22:12:40.262Z,10.60
2022-10-09T22:15:08.248Z,10.30
2022-10-09T22:17:35.956Z,10.95
2022-10-09T22:20:03.547Z,9.02
2022-10-09T22:22:31.443Z,9.20
2022-10-09T22:25:00.409Z,9.18
2022-10-09T22:27:27.491Z,6.43
2022-10-09T22:29:55.487Z,7.22
2022-10-09T22:32:23.172Z,5.95
2022-10-09T22:34:51.823Z,5.85
2022-10-09T22:37:18.859Z,4.07
2022-10-09T22:39:45.935Z,3.53
2022-10-09T22:42:12.949Z,3.63
2022-10-09T22:44:40.068Z,4.53
2022-10-09T22:47:07.034Z,4.43
2022-10-09T22:49:34.803Z,4.20
2022-10-09T22:52:02.699Z,3.53
2022-10-09T22:54:29.873Z,3.75
2022-10-09T22:56:56.915Z,3.17
2022-10-09T22:59:23.991Z,6.10
2022-10-09T23:01:55.946Z,3.47
2022-10-09T23:04:23.593Z,3.60
2022-10-09T23:06:56.394Z,4.18
2022-10-09T23:09:28.426Z,4.75
2022-10-09T23:11:56.774Z,3.70
2022-10-09T23:14:24.430Z,3.95
2022-10-09T23:16:51.490Z,4.75
2022-10-09T23:19:18.692Z,4.70
2022-10-09T23:21:46.706Z,4.15
2022-10-09T23:24:17.862Z,3.80
2022-10-09T23:26:46.683Z,3.33
2022-10-09T23:29:18.824Z,4.40
2022-10-09T23:31:46.170Z,4.55
2022-10-09T23:34:13.526Z,4.80
2022-10-09T23:36:40.579Z,5.20
2022-10-09T23:39:07.819Z,5.35
2022-10-09T23:41:35.641Z,6.72
2022-10-09T23:44:03.757Z,5.70
2022-10-09T23:46:34.751Z,8.52
2022-10-09T23:49:02.209Z,9.10
2022-10-09T23:51:30.258Z,7.65
2022-10-09T23:53:58.504Z,4.47
2022-10-09T23:56:30.456Z,3.90
2022-10-09T23:58:59.395Z,5.43
